Accueil
METAR-TAF:

METAR-TAF

Aéroports :

Aéroport de Stockholm-Bromma

Stockholm, Suède

latitude: 59-21N, longitude: 017-57E, altitude: 14 m

Observation

Le bulletin a été fait il y a 31 minutes, à 06:50 UTC
Vent 4 kt de est, variant entre nord/nord-est et sud-est
Température 16°C
Humidité 55%
Pression 1013 hPa
Visibilité 10 km ou plus
pas de nuages en-dessous de 1500 mètres et pas de cumulonimbus.

METAR: ESSB 030650Z 08004KT 030V130 CAVOK 16/07 Q1013

Heure: 09:21 (07:21 UTC)

Prévision

Le bulletin a été fait il y a 1 heure et 51 minutes, à 05:30 UTC
Prévision valable du 03 à 06 UTC au 03 à 15 UTC
Vent 4 kt de est
Visibilité 10 km ou plus
pas de nuages en-dessous de 1500 mètres et pas de cumulonimbus.
Evoluant progressivement
du 03 à 12 UTC au 03 à 14 UTC
Vent 10 kt de sud/sud-est

TAF: ESSB 030530Z 0306/0315 08004KT CAVOK BECMG 0312/0314 15010KT

Observations et prévisions météorologiques de plus de 4000 aéroports (messages METAR et TAF).

Les stations disponibles sont représentées par des disques jaunes et rouges sur la carte.

Passer la souris dessus pour voir le nom de la station.

Cliquer dessus pour voir les observations et prévisions météorologiques.

Pour changer de carte: cliquez sur les boutons verts avec une croix noire pour zoomer, sur le bouton vert avec un tiret pour effectuer un zoom arrière, ou sur les flèches vertes pour les cartes adjacentes.


METAR-TAF: